createdAt,value
2019-04-06T00:00:15.317Z,56.54
2019-04-06T00:01:15.352Z,56.45
2019-04-06T00:02:15.295Z,56.26
2019-04-06T00:03:15.288Z,56.45
2019-04-06T00:04:15.297Z,56.73
2019-04-06T00:05:15.269Z,56.63
2019-04-06T00:06:15.257Z,56.35
2019-04-06T00:07:15.246Z,57.02
2019-04-06T00:08:15.232Z,56.54
2019-04-06T00:09:15.224Z,56.73
2019-04-06T00:10:15.222Z,56.73
2019-04-06T00:11:15.214Z,57.59
2019-04-06T00:12:15.200Z,57.21
2019-04-06T00:13:15.185Z,57.21
2019-04-06T00:14:15.171Z,57.02
2019-04-06T00:15:15.170Z,57.02
2019-04-06T00:16:15.844Z,56.92
2019-04-06T00:17:15.144Z,57.59
2019-04-06T00:18:15.154Z,57.68
2019-04-06T00:19:15.189Z,58.73
2019-04-06T00:20:15.117Z,58.73
2019-04-06T00:21:15.109Z,58.73
2019-04-06T00:22:15.120Z,58.35
2019-04-06T00:23:15.089Z,58.25
2019-04-06T00:24:15.082Z,58.35
2019-04-06T00:25:15.068Z,57.87
2019-04-06T00:26:15.059Z,57.50
2019-04-06T00:27:15.053Z,57.68
2019-04-06T00:28:15.043Z,57.78
2019-04-06T00:29:15.033Z,58.25
2019-04-06T00:30:15.017Z,58.92
2019-04-06T00:31:15.012Z,58.35
2019-04-06T00:32:14.994Z,58.16
2019-04-06T00:33:14.987Z,58.35
2019-04-06T00:34:14.978Z,58.16
2019-04-06T00:35:14.977Z,57.50
2019-04-06T00:36:14.954Z,57.78
2019-04-06T00:37:14.947Z,58.16
2019-04-06T00:38:14.938Z,57.50
2019-04-06T00:39:14.925Z,57.21
2019-04-06T00:40:14.917Z,57.02
2019-04-06T00:41:14.910Z,57.68
2019-04-06T00:42:14.897Z,58.44
2019-04-06T00:43:14.901Z,57.68
2019-04-06T00:44:16.769Z,57.78
2019-04-06T00:45:14.875Z,57.50
2019-04-06T00:46:14.853Z,58.44
2019-04-06T00:47:14.842Z,57.50
2019-04-06T00:48:14.839Z,57.50
2019-04-06T00:49:14.830Z,58.16
2019-04-06T00:50:14.818Z,58.63
2019-04-06T00:51:14.805Z,58.44
2019-04-06T00:52:14.792Z,58.54
2019-04-06T00:53:14.786Z,57.68
2019-04-06T00:54:16.223Z,57.87
2019-04-06T00:55:14.772Z,57.68
2019-04-06T00:56:14.757Z,57.78
2019-04-06T00:57:14.844Z,57.78
2019-04-06T00:58:14.732Z,57.68
2019-04-06T00:59:14.724Z,57.87
2019-04-06T01:00:14.718Z,57.21
2019-04-06T01:01:14.722Z,57.11
2019-04-06T01:02:14.710Z,56.92
2019-04-06T01:03:14.681Z,57.59
2019-04-06T01:04:14.676Z,57.21
2019-04-06T01:05:14.659Z,56.92
2019-04-06T01:06:14.649Z,56.63
2019-04-06T01:07:14.636Z,56.35
2019-04-06T01:08:14.637Z,56.45
2019-04-06T01:09:14.647Z,56.92
2019-04-06T01:10:14.614Z,57.21
2019-04-06T01:11:14.605Z,57.59
2019-04-06T01:12:14.614Z,57.30
2019-04-06T01:13:14.587Z,57.59
2019-04-06T01:14:14.576Z,57.59
2019-04-06T01:15:14.571Z,57.30
2019-04-06T01:16:14.551Z,56.92
2019-04-06T01:17:14.544Z,57.21
2019-04-06T01:18:14.532Z,57.02
2019-04-06T01:19:14.528Z,57.59
2019-04-06T01:20:14.507Z,57.40
2019-04-06T01:21:14.513Z,57.78
2019-04-06T01:22:14.508Z,57.97
2019-04-06T01:23:14.484Z,56.92
2019-04-06T01:24:14.483Z,57.21
2019-04-06T01:25:14.470Z,57.59
2019-04-06T01:26:14.471Z,57.40
2019-04-06T01:27:14.440Z,57.30
2019-04-06T01:28:14.457Z,56.63
2019-04-06T01:29:14.430Z,56.54
2019-04-06T01:30:14.416Z,56.26
2019-04-06T01:31:14.408Z,57.40
2019-04-06T01:32:14.389Z,57.30
2019-04-06T01:33:14.389Z,56.92
2019-04-06T01:34:14.372Z,58.25
2019-04-06T01:35:14.373Z,58.54
2019-04-06T01:36:14.355Z,59.30
2019-04-06T01:37:14.346Z,59.77
2019-04-06T01:38:14.336Z,58.83
2019-04-06T01:39:14.321Z,58.63
2019-04-06T01:40:14.313Z,58.54
2019-04-06T01:41:14.306Z,58.54
2019-04-06T01:42:14.367Z,58.92
2019-04-06T01:43:14.295Z,60.16
2019-04-06T01:44:14.279Z,60.82
2019-04-06T01:45:14.264Z,60.53
2019-04-06T01:46:14.262Z,60.25
2019-04-06T01:47:14.240Z,60.25
2019-04-06T01:48:14.237Z,60.06
2019-04-06T01:49:14.226Z,60.06
2019-04-06T01:50:14.218Z,60.53
2019-04-06T01:51:14.208Z,60.91
2019-04-06T01:52:14.218Z,61.10
2019-04-06T01:53:14.201Z,62.05
2019-04-06T01:54:14.272Z,61.68
2019-04-06T01:55:14.167Z,61.87
2019-04-06T01:56:18.728Z,61.20
2019-04-06T01:57:14.144Z,61.68
2019-04-06T01:58:14.137Z,61.96
2019-04-06T01:59:14.139Z,62.81
2019-04-06T02:00:14.137Z,62.34
2019-04-06T02:01:14.113Z,62.91
2019-04-06T02:02:14.104Z,63.29
2019-04-06T02:03:14.086Z,60.06
2019-04-06T02:04:14.076Z,57.97
2019-04-06T02:05:14.091Z,57.02
2019-04-06T02:06:14.081Z,56.54
2019-04-06T02:07:14.049Z,56.54
2019-04-06T02:08:14.889Z,57.59
2019-04-06T02:09:14.024Z,57.50
2019-04-06T02:10:14.014Z,57.11
2019-04-06T02:11:14.006Z,57.30
2019-04-06T02:12:13.996Z,57.02
2019-04-06T02:13:13.992Z,57.02
2019-04-06T02:14:13.975Z,56.63
2019-04-06T02:15:13.961Z,56.26
2019-04-06T02:16:13.962Z,55.78
2019-04-06T02:17:13.955Z,55.50
2019-04-06T02:18:13.987Z,55.59
2019-04-06T02:19:13.958Z,55.69
2019-04-06T02:20:13.927Z,55.69
2019-04-06T02:21:13.907Z,55.69
2019-04-06T02:22:13.902Z,55.69
2019-04-06T02:23:13.891Z,55.40
2019-04-06T02:24:13.879Z,56.45
2019-04-06T02:25:13.868Z,56.73
2019-04-06T02:26:13.858Z,57.02
2019-04-06T02:27:13.971Z,57.59
2019-04-06T02:28:13.843Z,57.78
2019-04-06T02:29:13.828Z,57.40
2019-04-06T02:30:13.826Z,57.50
2019-04-06T02:31:13.820Z,57.50
2019-04-06T02:32:13.796Z,57.59
2019-04-06T02:33:14.665Z,56.63
2019-04-06T02:34:13.783Z,56.92
2019-04-06T02:35:13.775Z,56.83
2019-04-06T02:36:13.758Z,56.63
2019-04-06T02:37:13.752Z,56.83
2019-04-06T02:38:13.735Z,56.16
2019-04-06T02:39:13.724Z,56.54
2019-04-06T02:40:13.720Z,56.92
2019-04-06T02:41:13.704Z,56.92
2019-04-06T02:42:13.698Z,56.45
2019-04-06T02:43:13.690Z,56.92
2019-04-06T02:44:13.671Z,57.02
2019-04-06T02:45:13.669Z,56.63
2019-04-06T02:46:13.675Z,56.45
2019-04-06T02:47:13.648Z,56.26
2019-04-06T02:48:13.714Z,56.26
2019-04-06T02:49:13.722Z,56.54
2019-04-06T02:50:13.619Z,56.63
2019-04-06T02:51:13.623Z,56.45
2019-04-06T02:52:13.676Z,56.35
2019-04-06T02:53:13.610Z,54.64
2019-04-06T02:54:13.568Z,53.41
2019-04-06T02:55:13.567Z,53.69
2019-04-06T02:56:13.555Z,54.17
2019-04-06T02:57:13.546Z,54.26
2019-04-06T02:58:13.530Z,55.02
2019-04-06T02:59:13.518Z,55.40
2019-04-06T03:00:13.541Z,55.11
2019-04-06T03:01:13.509Z,55.11
2019-04-06T03:02:13.494Z,54.64
2019-04-06T03:03:13.545Z,55.59
2019-04-06T03:04:13.476Z,55.69
2019-04-06T03:05:13.462Z,55.40
2019-04-06T03:06:13.684Z,56.73
2019-04-06T03:07:13.444Z,56.73
2019-04-06T03:08:14.405Z,57.59
2019-04-06T03:09:13.422Z,57.78
2019-04-06T03:10:13.434Z,57.78
2019-04-06T03:11:13.400Z,58.06
2019-04-06T03:12:13.394Z,58.16
2019-04-06T03:13:13.384Z,58.92
2019-04-06T03:14:13.375Z,58.83
2019-04-06T03:15:13.419Z,59.58
2019-04-06T03:16:13.354Z,58.54
2019-04-06T03:17:13.339Z,58.73
2019-04-06T03:18:13.329Z,58.92
2019-04-06T03:19:13.329Z,58.35
2019-04-06T03:20:13.330Z,59.58
2019-04-06T03:21:13.307Z,59.77
2019-04-06T03:22:13.306Z,58.92
2019-04-06T03:23:13.280Z,59.58
2019-04-06T03:24:13.276Z,59.58
2019-04-06T03:25:13.255Z,58.83
2019-04-06T03:26:13.308Z,58.73
2019-04-06T03:27:13.239Z,58.92
2019-04-06T03:28:13.228Z,58.83
2019-04-06T03:29:13.264Z,59.20
2019-04-06T03:30:13.592Z,59.01
2019-04-06T03:31:13.485Z,59.39
2019-04-06T03:32:13.522Z,59.42
2019-04-06T03:33:13.442Z,58.76
2019-04-06T03:34:13.194Z,58.83
2019-04-06T03:35:13.235Z,58.44
2019-04-06T03:36:13.146Z,58.06
2019-04-06T03:37:13.138Z,57.78
2019-04-06T03:38:13.124Z,58.16
2019-04-06T03:39:13.119Z,58.06
2019-04-06T03:40:13.204Z,57.59
2019-04-06T03:41:13.225Z,57.40
2019-04-06T03:42:13.100Z,57.21
2019-04-06T03:43:13.074Z,56.83
2019-04-06T03:44:13.067Z,56.26
2019-04-06T03:45:13.060Z,56.26
2019-04-06T03:46:13.043Z,55.11
2019-04-06T03:47:13.041Z,55.30
2019-04-06T03:48:13.061Z,55.59
2019-04-06T03:49:13.011Z,55.59
2019-04-06T03:50:13.006Z,55.50
2019-04-06T03:51:13.011Z,55.02
2019-04-06T03:52:12.980Z,55.40
2019-04-06T03:53:12.974Z,56.07
2019-04-06T03:54:12.964Z,55.97
2019-04-06T03:55:12.978Z,56.54
2019-04-06T03:56:12.958Z,56.63
2019-04-06T03:57:15.915Z,56.92
2019-04-06T03:58:12.925Z,57.52
2019-04-06T03:59:13.029Z,58.18
2019-04-06T04:00:12.898Z,57.81
2019-04-06T04:01:13.050Z,58.44
2019-04-06T04:02:12.884Z,59.01
2019-04-06T04:03:12.870Z,58.85
2019-04-06T04:04:12.916Z,59.61
2019-04-06T04:05:12.959Z,59.90
2019-04-06T04:06:12.842Z,59.80
2019-04-06T04:07:12.893Z,60.38
2019-04-06T04:08:12.830Z,60.44
2019-04-06T04:09:12.845Z,60.28
2019-04-06T04:10:12.800Z,61.13
2019-04-06T04:11:12.814Z,61.32
2019-04-06T04:12:12.780Z,61.52
2019-04-06T04:13:12.770Z,61.13
2019-04-06T04:14:12.761Z,61.52
2019-04-06T04:15:12.791Z,61.04
2019-04-06T04:16:12.753Z,60.94
2019-04-06T04:17:12.935Z,61.32
2019-04-06T04:18:12.732Z,61.32
2019-04-06T04:19:12.709Z,61.13
2019-04-06T04:20:12.701Z,61.13
2019-04-06T04:21:12.707Z,60.94
2019-04-06T04:22:12.702Z,61.90
2019-04-06T04:23:12.804Z,61.23
2019-04-06T04:24:12.777Z,61.04
2019-04-06T04:25:12.646Z,61.61
2019-04-06T04:26:12.644Z,61.61
2019-04-06T04:27:12.632Z,61.32
2019-04-06T04:28:12.945Z,61.61
2019-04-06T04:29:12.609Z,60.94
2019-04-06T04:30:15.009Z,61.32
2019-04-06T04:31:12.592Z,61.90
2019-04-06T04:32:12.582Z,61.80
2019-04-06T04:33:12.574Z,61.80
2019-04-06T04:34:12.575Z,62.08
2019-04-06T04:35:12.544Z,61.52
2019-04-06T04:36:12.544Z,62.18
2019-04-06T04:37:12.530Z,62.18
2019-04-06T04:38:12.555Z,62.18
2019-04-06T04:39:12.564Z,62.37
2019-04-06T04:40:12.515Z,62.37
2019-04-06T04:41:12.487Z,62.85
2019-04-06T04:42:12.489Z,63.23
2019-04-06T04:43:12.478Z,63.13
2019-04-06T04:44:12.457Z,63.13
2019-04-06T04:45:12.442Z,63.13
2019-04-06T04:46:12.438Z,62.85
2019-04-06T04:47:12.630Z,63.32
2019-04-06T04:48:12.420Z,63.51
2019-04-06T04:49:12.417Z,63.51
2019-04-06T04:50:12.531Z,64.08
2019-04-06T04:51:12.388Z,64.37
2019-04-06T04:52:12.377Z,63.89
2019-04-06T04:53:12.429Z,63.99
2019-04-06T04:54:12.501Z,63.99
2019-04-06T04:55:12.350Z,65.13
2019-04-06T04:56:12.339Z,64.56
2019-04-06T04:57:12.329Z,65.13
2019-04-06T04:58:12.518Z,65.32
2019-04-06T04:59:12.307Z,64.75
2019-04-06T05:00:12.317Z,65.80
2019-04-06T05:01:12.301Z,65.99
2019-04-06T05:02:12.281Z,65.41
2019-04-06T05:03:12.270Z,66.08
2019-04-06T05:04:12.253Z,65.99
2019-04-06T05:05:12.252Z,65.99
2019-04-06T05:06:12.407Z,65.22
2019-04-06T05:07:12.252Z,65.89
2019-04-06T05:08:12.224Z,66.55
2019-04-06T05:09:12.215Z,66.36
2019-04-06T05:10:12.194Z,67.32
2019-04-06T05:11:12.189Z,66.94
2019-04-06T05:12:12.300Z,66.36
2019-04-06T05:13:12.167Z,66.94
2019-04-06T05:14:12.218Z,67.69
2019-04-06T05:15:12.180Z,67.32
2019-04-06T05:16:12.375Z,67.60
2019-04-06T05:17:12.125Z,66.74
2019-04-06T05:18:12.114Z,66.65
2019-04-06T05:19:12.266Z,67.03
2019-04-06T05:20:12.100Z,66.46
2019-04-06T05:21:12.092Z,66.17
2019-04-06T05:22:12.099Z,65.80
2019-04-06T05:23:12.067Z,66.27
2019-04-06T05:24:12.058Z,65.70
2019-04-06T05:25:12.349Z,65.32
2019-04-06T05:26:12.044Z,64.27
2019-04-06T05:27:12.032Z,65.22
2019-04-06T05:28:12.018Z,64.27
2019-04-06T05:29:12.013Z,64.84
2019-04-06T05:30:12.047Z,64.46
2019-04-06T05:31:11.984Z,64.37
2019-04-06T05:32:11.978Z,63.04
2019-04-06T05:33:11.965Z,62.85
2019-04-06T05:34:11.949Z,62.46
2019-04-06T05:35:11.950Z,61.99
2019-04-06T05:36:11.937Z,61.42
2019-04-06T05:37:11.942Z,61.61
2019-04-06T05:38:11.920Z,62.85
2019-04-06T05:39:11.907Z,64.27
2019-04-06T05:40:11.900Z,64.65
2019-04-06T05:41:12.054Z,64.37
2019-04-06T05:42:11.881Z,64.18
2019-04-06T05:43:11.860Z,64.27
2019-04-06T05:44:11.859Z,64.27
2019-04-06T05:45:11.847Z,65.70
2019-04-06T05:46:11.837Z,65.41
2019-04-06T05:47:11.823Z,66.17
2019-04-06T05:48:11.816Z,66.27
2019-04-06T05:49:11.901Z,66.84
2019-04-06T05:50:11.911Z,66.94
2019-04-06T05:51:11.784Z,67.03
2019-04-06T05:52:11.775Z,67.03
2019-04-06T05:53:11.761Z,65.99
2019-04-06T05:54:11.755Z,66.74
2019-04-06T05:55:11.757Z,66.74
2019-04-06T05:56:11.728Z,68.27
2019-04-06T05:57:11.720Z,68.27
2019-04-06T05:58:11.867Z,69.88
2019-04-06T05:59:11.799Z,69.60
2019-04-06T06:00:11.692Z,68.96
2019-04-06T06:01:11.784Z,69.98
2019-04-06T06:02:11.673Z,70.45
2019-04-06T06:03:11.769Z,69.92
2019-04-06T06:04:11.792Z,69.50
2019-04-06T06:05:11.643Z,70.01
2019-04-06T06:06:12.857Z,70.49
2019-04-06T06:07:11.624Z,71.12
2019-04-06T06:08:11.622Z,71.22
2019-04-06T06:09:11.605Z,71.50
2019-04-06T06:10:11.595Z,70.97
2019-04-06T06:11:11.783Z,71.34
2019-04-06T06:12:11.577Z,72.77
2019-04-06T06:13:11.567Z,71.63
2019-04-06T06:14:11.560Z,71.34
2019-04-06T06:15:11.569Z,72.39
2019-04-06T06:16:12.234Z,72.39
2019-04-06T06:17:11.529Z,73.72
2019-04-06T06:18:11.526Z,72.77
2019-04-06T06:19:11.509Z,73.15
2019-04-06T06:20:11.558Z,74.67
2019-04-06T06:21:11.485Z,75.34
2019-04-06T06:22:11.561Z,75.24
2019-04-06T06:23:11.470Z,74.20
2019-04-06T06:24:11.458Z,74.20
2019-04-06T06:25:11.468Z,76.48
2019-04-06T06:26:11.454Z,77.34
2019-04-06T06:27:11.435Z,78.86
2019-04-06T06:28:15.275Z,78.10
2019-04-06T06:29:11.447Z,78.10
2019-04-06T06:30:11.399Z,77.53
2019-04-06T06:31:11.393Z,77.43
2019-04-06T06:32:11.492Z,77.91
2019-04-06T06:33:11.388Z,78.48
2019-04-06T06:34:11.564Z,79.05
2019-04-06T06:35:11.378Z,78.00
2019-04-06T06:36:11.343Z,78.96
2019-04-06T06:37:11.375Z,79.72
2019-04-06T06:38:11.322Z,78.57
2019-04-06T06:39:11.315Z,80.38
2019-04-06T06:40:11.304Z,79.43
2019-04-06T06:41:11.294Z,80.47
2019-04-06T06:42:11.319Z,79.62
2019-04-06T06:43:11.288Z,79.81
2019-04-06T06:44:11.265Z,80.95
2019-04-06T06:45:11.256Z,81.24
2019-04-06T06:46:11.249Z,80.57
2019-04-06T06:47:11.238Z,81.90
2019-04-06T06:48:11.225Z,83.14
2019-04-06T06:49:11.221Z,83.28
2019-04-06T06:50:11.210Z,82.76
2019-04-06T06:51:11.193Z,85.18
2019-04-06T06:52:11.198Z,85.18
2019-04-06T06:53:11.282Z,84.23
2019-04-06T06:54:11.170Z,84.99
2019-04-06T06:55:11.171Z,87.37
2019-04-06T06:56:11.150Z,86.42
2019-04-06T06:57:11.146Z,88.32
2019-04-06T06:58:11.137Z,90.80
2019-04-06T06:59:11.218Z,91.27
2019-04-06T07:00:11.281Z,91.17
2019-04-06T07:01:11.114Z,90.03
2019-04-06T07:02:11.097Z,91.27
2019-04-06T07:03:11.093Z,91.84
2019-04-06T07:04:11.075Z,92.41
2019-04-06T07:05:11.059Z,90.80
2019-04-06T07:06:11.052Z,89.75
2019-04-06T07:07:11.047Z,93.94
2019-04-06T07:08:11.041Z,91.84
2019-04-06T07:09:11.033Z,94.13
2019-04-06T07:10:11.076Z,93.94
2019-04-06T07:11:11.222Z,94.70
2019-04-06T07:12:11.018Z,93.22
2019-04-06T07:13:10.988Z,95.12
2019-04-06T07:14:11.005Z,93.60
2019-04-06T07:15:10.975Z,95.41
2019-04-06T07:16:11.158Z,98.74
2019-04-06T07:17:10.961Z,97.22
2019-04-06T07:18:10.947Z,98.18
2019-04-06T07:19:10.933Z,97.70
2019-04-06T07:20:10.937Z,98.74
2019-04-06T07:21:10.921Z,97.70
2019-04-06T07:22:10.912Z,99.32
2019-04-06T07:23:11.100Z,98.55
2019-04-06T07:24:10.894Z,99.99
2019-04-06T07:25:10.889Z,99.99
2019-04-06T07:26:10.885Z,99.99
2019-04-06T07:27:11.065Z,99.99
2019-04-06T07:28:11.285Z,99.51
2019-04-06T07:29:10.854Z,99.03
2019-04-06T07:30:11.072Z,99.99
2019-04-06T07:31:10.837Z,97.13
2019-04-06T07:32:10.832Z,99.13
2019-04-06T07:33:11.067Z,99.99
2019-04-06T07:34:10.811Z,99.99
2019-04-06T07:35:10.824Z,98.18
2019-04-06T07:36:10.800Z,99.99
2019-04-06T07:37:11.114Z,99.99
2019-04-06T07:38:10.830Z,99.99
2019-04-06T07:39:10.768Z,99.99
2019-04-06T07:40:10.824Z,99.99
2019-04-06T07:41:10.752Z,99.99
2019-04-06T07:42:10.940Z,99.99
2019-04-06T07:43:10.736Z,99.99
2019-04-06T07:44:11.010Z,97.79
2019-04-06T07:45:10.723Z,99.99
2019-04-06T07:46:10.715Z,99.99
2019-04-06T07:47:10.697Z,99.99
2019-04-06T07:48:10.699Z,99.99
2019-04-06T07:49:10.693Z,98.27
2019-04-06T07:50:10.676Z,99.13
2019-04-06T07:51:10.662Z,99.32
2019-04-06T07:52:10.664Z,99.99
2019-04-06T07:53:10.821Z,99.99
2019-04-06T07:54:10.646Z,98.18
2019-04-06T07:55:10.631Z,99.99
2019-04-06T07:56:10.615Z,99.89
2019-04-06T07:57:10.613Z,99.99
2019-04-06T07:58:10.624Z,99.99
2019-04-06T07:59:10.589Z,99.99
2019-04-06T08:00:10.583Z,99.99
2019-04-06T08:01:10.584Z,99.99
2019-04-06T08:02:10.837Z,99.99
2019-04-06T08:03:10.560Z,99.99
2019-04-06T08:04:10.552Z,99.99
2019-04-06T08:05:10.550Z,99.99
2019-04-06T08:06:10.547Z,99.99
2019-04-06T08:07:10.524Z,99.99
2019-04-06T08:08:10.523Z,99.99
2019-04-06T08:09:10.510Z,99.99
2019-04-06T08:10:10.702Z,99.99
2019-04-06T08:11:10.491Z,99.99
2019-04-06T08:12:10.480Z,99.99
2019-04-06T08:13:10.481Z,99.99
2019-04-06T08:14:10.531Z,99.99
2019-04-06T08:15:10.487Z,99.99
2019-04-06T08:16:10.445Z,99.99
2019-04-06T08:17:10.445Z,99.99
2019-04-06T08:18:10.431Z,99.99
2019-04-06T08:19:10.427Z,99.99
2019-04-06T08:20:10.411Z,99.99
2019-04-06T08:21:10.428Z,99.99
2019-04-06T08:22:10.392Z,99.99
2019-04-06T08:23:10.389Z,99.99
2019-04-06T08:24:10.387Z,99.99
2019-04-06T08:25:10.395Z,99.99
2019-04-06T08:26:10.763Z,99.99
2019-04-06T08:27:10.357Z,99.99
2019-04-06T08:28:10.476Z,99.99
2019-04-06T08:29:10.337Z,99.99
2019-04-06T08:30:10.328Z,99.99
2019-04-06T08:31:10.329Z,99.99
2019-04-06T08:32:10.307Z,99.99
2019-04-06T08:33:10.300Z,99.99
2019-04-06T08:34:10.296Z,99.99
2019-04-06T08:35:10.280Z,99.99
2019-04-06T08:36:10.525Z,99.99
2019-04-06T08:37:10.302Z,99.99
2019-04-06T08:38:10.535Z,99.99
2019-04-06T08:39:10.400Z,99.99
2019-04-06T08:40:10.271Z,99.99
2019-04-06T08:41:10.238Z,99.99
2019-04-06T08:42:10.228Z,99.99
2019-04-06T08:43:10.252Z,99.99
2019-04-06T08:44:10.205Z,99.99
2019-04-06T08:45:10.212Z,99.99
2019-04-06T08:46:10.200Z,99.99
2019-04-06T08:47:10.185Z,99.99
2019-04-06T08:48:10.175Z,99.99
2019-04-06T08:49:10.182Z,99.99
2019-04-06T08:50:10.166Z,99.99
2019-04-06T08:51:10.171Z,99.99
2019-04-06T08:52:11.678Z,99.99
2019-04-06T08:53:10.139Z,99.99
2019-04-06T08:54:10.139Z,99.99
2019-04-06T08:55:10.290Z,99.99
2019-04-06T08:56:10.113Z,99.99
2019-04-06T08:57:10.111Z,99.99
2019-04-06T08:58:10.104Z,99.99
2019-04-06T08:59:12.218Z,99.99
2019-04-06T09:00:10.085Z,99.99
2019-04-06T09:01:10.090Z,99.99
2019-04-06T09:02:10.075Z,99.99
2019-04-06T09:03:10.069Z,99.99
2019-04-06T09:04:10.057Z,99.99
2019-04-06T09:05:10.301Z,99.99
2019-04-06T09:06:10.053Z,99.99
2019-04-06T09:07:10.040Z,99.99
2019-04-06T09:08:10.043Z,99.99
2019-04-06T09:09:10.035Z,99.99
2019-04-06T09:10:10.048Z,99.99
2019-04-06T09:11:10.010Z,99.99
2019-04-06T09:12:10.027Z,99.99
2019-04-06T09:13:10.005Z,99.99
2019-04-06T09:14:10.000Z,99.99
2019-04-06T09:15:10.077Z,99.99
2019-04-06T09:16:09.981Z,99.99
2019-04-06T09:17:09.981Z,99.99
2019-04-06T09:18:10.195Z,99.99
2019-04-06T09:19:09.968Z,99.99
2019-04-06T09:20:09.959Z,99.99
2019-04-06T09:21:09.954Z,99.99
2019-04-06T09:22:09.952Z,99.99
2019-04-06T09:23:09.939Z,99.99
2019-04-06T09:24:09.941Z,99.99
2019-04-06T09:25:10.223Z,99.99
2019-04-06T09:26:09.931Z,99.99
2019-04-06T09:27:09.925Z,99.99
2019-04-06T09:28:09.925Z,99.99
2019-04-06T09:29:10.048Z,99.99
2019-04-06T09:30:09.918Z,99.99
2019-04-06T09:31:09.907Z,99.99
2019-04-06T09:32:09.898Z,99.99
2019-04-06T09:33:09.904Z,99.99
2019-04-06T09:34:09.901Z,99.99
2019-04-06T09:35:09.892Z,99.99
2019-04-06T09:36:09.887Z,99.99
2019-04-06T09:37:09.988Z,99.99
2019-04-06T09:38:09.923Z,99.99
2019-04-06T09:39:09.880Z,99.90
2019-04-06T09:40:09.873Z,96.56
2019-04-06T09:41:10.597Z,96.27
2019-04-06T09:42:10.107Z,96.27
2019-04-06T09:43:09.865Z,96.75
2019-04-06T09:44:09.892Z,95.03
2019-04-06T09:45:09.860Z,97.52
2019-04-06T09:46:09.883Z,95.70
2019-04-06T09:47:09.859Z,95.98
2019-04-06T09:48:09.853Z,95.89
2019-04-06T09:49:09.856Z,95.17
2019-04-06T09:50:09.861Z,94.31
2019-04-06T09:51:09.851Z,93.26
2019-04-06T09:52:10.055Z,93.45
2019-04-06T09:53:09.855Z,95.61
2019-04-06T09:54:09.928Z,94.36
2019-04-06T09:55:09.840Z,92.06
2019-04-06T09:56:09.843Z,90.05
2019-04-06T09:57:09.835Z,90.58
2019-04-06T09:58:09.973Z,90.92
2019-04-06T09:59:09.846Z,93.26
2019-04-06T10:00:09.858Z,92.25
2019-04-06T10:01:09.849Z,93.16
2019-04-06T10:02:09.836Z,94.89
2019-04-06T10:03:09.915Z,95.75
2019-04-06T10:04:09.832Z,97.08
2019-04-06T10:05:09.837Z,97.08
2019-04-06T10:06:09.987Z,98.61
2019-04-06T10:07:09.828Z,98.71
2019-04-06T10:08:09.833Z,99.76
2019-04-06T10:09:09.822Z,98.52
2019-04-06T10:10:09.824Z,99.99
2019-04-06T10:11:09.815Z,99.99
2019-04-06T10:12:10.041Z,99.48
2019-04-06T10:13:09.930Z,99.99
2019-04-06T10:14:09.818Z,99.91
2019-04-06T10:15:09.815Z,94.26
2019-04-06T10:16:09.803Z,91.97
2019-04-06T10:17:09.813Z,92.97
2019-04-06T10:18:09.804Z,93.69
2019-04-06T10:19:09.840Z,91.82
2019-04-06T10:20:09.810Z,91.49
2019-04-06T10:21:09.810Z,91.97
2019-04-06T10:22:09.804Z,88.90
2019-04-06T10:23:09.801Z,89.24
2019-04-06T10:24:09.803Z,90.67
2019-04-06T10:25:11.299Z,93.16
2019-04-06T10:26:09.794Z,93.74
2019-04-06T10:27:09.797Z,94.93
2019-04-06T10:28:09.798Z,94.46
2019-04-06T10:29:10.125Z,93.88
2019-04-06T10:30:09.960Z,94.36
2019-04-06T10:31:09.787Z,95.61
2019-04-06T10:32:09.789Z,96.47
2019-04-06T10:33:09.785Z,96.27
2019-04-06T10:34:09.780Z,96.66
2019-04-06T10:35:09.782Z,96.84
2019-04-06T10:36:09.776Z,98.66
2019-04-06T10:37:10.017Z,98.75
2019-04-06T10:38:10.049Z,96.75
2019-04-06T10:39:09.987Z,95.89
2019-04-06T10:40:10.141Z,97.42
2019-04-06T10:41:09.969Z,98.95
2019-04-06T10:42:09.761Z,99.14
2019-04-06T10:43:09.757Z,98.43
2019-04-06T10:44:09.748Z,97.18
2019-04-06T10:45:09.749Z,94.60
2019-04-06T10:46:09.753Z,94.45
2019-04-06T10:47:09.750Z,93.69
2019-04-06T10:48:09.742Z,93.40
2019-04-06T10:49:09.744Z,92.06
2019-04-06T10:50:09.750Z,90.91
2019-04-06T10:51:09.743Z,91.87
2019-04-06T10:52:09.738Z,90.05
2019-04-06T10:53:09.733Z,89.38
2019-04-06T10:54:09.735Z,91.58
2019-04-06T10:55:09.754Z,91.87
2019-04-06T10:56:09.744Z,92.35
2019-04-06T10:57:09.852Z,91.87
2019-04-06T10:58:09.729Z,92.44
2019-04-06T10:59:09.729Z,93.21
2019-04-06T11:00:18.604Z,93.21
2019-04-06T11:02:10.877Z,91.97
2019-04-06T11:03:03.132Z,91.87
2019-04-06T11:05:04.375Z,90.05
2019-04-06T11:06:04.280Z,91.44
2019-04-06T11:07:50.065Z,89.72
2019-04-06T11:08:50.813Z,90.48
2019-04-06T11:09:50.138Z,90.77
2019-04-06T11:10:50.031Z,87.23
2019-04-06T11:11:50.305Z,90.58
2019-04-06T11:12:50.159Z,88.56
2019-04-06T11:13:50.030Z,89.95
2019-04-06T11:14:50.195Z,91.19
2019-04-06T11:15:50.031Z,86.94
2019-04-06T11:16:50.028Z,87.90
2019-04-06T11:17:50.620Z,90.58
2019-04-06T11:18:50.039Z,90.67
2019-04-06T11:19:50.023Z,88.04
2019-04-06T11:20:50.029Z,90.05
2019-04-06T11:21:50.019Z,89.58
2019-04-06T11:22:50.015Z,90.91
2019-04-06T11:23:50.014Z,90.63
2019-04-06T11:24:50.023Z,92.16
2019-04-06T11:25:50.264Z,96.94
2019-04-06T11:26:50.015Z,91.97
2019-04-06T11:27:50.009Z,90.44
2019-04-06T11:28:50.008Z,91.30
2019-04-06T11:29:50.092Z,91.20
2019-04-06T11:30:50.299Z,92.25
2019-04-06T11:31:49.991Z,91.82
2019-04-06T11:32:50.058Z,89.90
2019-04-06T11:33:50.182Z,93.35
2019-04-06T11:34:49.983Z,91.53
2019-04-06T11:35:49.982Z,92.11
2019-04-06T11:36:50.033Z,89.72
2019-04-06T11:37:50.099Z,89.48
2019-04-06T11:38:50.022Z,91.01
2019-04-06T11:39:49.982Z,94.26
2019-04-06T11:40:50.021Z,91.87
2019-04-06T11:41:49.969Z,92.35
2019-04-06T11:42:49.970Z,91.97
2019-04-06T11:43:49.980Z,91.58
2019-04-06T11:44:49.955Z,92.73
2019-04-06T11:45:49.953Z,90.77
2019-04-06T11:46:50.233Z,92.73
2019-04-06T11:47:49.970Z,94.07
2019-04-06T11:48:49.952Z,93.12
2019-04-06T11:49:49.944Z,94.17
2019-04-06T11:50:49.936Z,91.20
2019-04-06T11:51:50.268Z,92.97
2019-04-06T11:52:49.926Z,91.25
2019-04-06T11:53:49.990Z,88.95
2019-04-06T11:54:49.963Z,88.37
2019-04-06T11:55:49.922Z,89.00
2019-04-06T11:56:49.921Z,89.00
2019-04-06T11:57:49.912Z,89.76
2019-04-06T11:58:49.921Z,90.00
2019-04-06T11:59:49.900Z,93.16
2019-04-06T12:00:49.924Z,91.44
2019-04-06T12:01:49.905Z,88.18
2019-04-06T12:02:49.903Z,86.08
2019-04-06T12:03:49.915Z,86.08
2019-04-06T12:04:50.003Z,86.31
2019-04-06T12:05:50.169Z,85.16
2019-04-06T12:06:49.879Z,86.41
2019-04-06T12:07:49.903Z,84.11
2019-04-06T12:08:49.905Z,84.58
2019-04-06T12:09:50.419Z,83.92
2019-04-06T12:10:49.894Z,84.01
2019-04-06T12:11:49.870Z,83.15
2019-04-06T12:12:50.180Z,90.05
2019-04-06T12:13:49.930Z,86.60
2019-04-06T12:14:49.869Z,86.41
2019-04-06T12:15:49.989Z,84.39
2019-04-06T12:16:49.863Z,83.82
2019-04-06T12:17:49.874Z,83.63
2019-04-06T12:18:49.857Z,85.06
2019-04-06T12:19:49.868Z,86.50
2019-04-06T12:20:49.880Z,86.12
2019-04-06T12:21:49.854Z,85.74
2019-04-06T12:22:50.826Z,82.67
2019-04-06T12:23:49.846Z,83.92
2019-04-06T12:24:50.200Z,83.25
2019-04-06T12:25:49.838Z,84.49
2019-04-06T12:26:49.847Z,89.86
2019-04-06T12:27:49.861Z,89.18
2019-04-06T12:28:49.837Z,88.17
2019-04-06T12:29:49.840Z,82.52
2019-04-06T12:30:49.836Z,84.25
2019-04-06T12:31:50.111Z,81.85
2019-04-06T12:32:49.859Z,81.08
2019-04-06T12:33:50.041Z,80.79
2019-04-06T12:34:49.824Z,79.74
2019-04-06T12:35:49.891Z,80.22
2019-04-06T12:36:49.830Z,79.26
2019-04-06T12:37:49.829Z,78.69
2019-04-06T12:38:49.823Z,82.04
2019-04-06T12:39:53.465Z,81.12
2019-04-06T12:40:49.825Z,79.97
2019-04-06T12:41:49.827Z,77.95
2019-04-06T12:42:49.821Z,78.78
2019-04-06T12:43:49.820Z,77.73
2019-04-06T12:44:49.821Z,79.36
2019-04-06T12:45:49.821Z,85.68
2019-04-06T12:46:49.822Z,80.41
2019-04-06T12:47:49.817Z,80.89
2019-04-06T12:48:52.350Z,81.08
2019-04-06T12:49:49.814Z,80.45
2019-04-06T12:50:49.818Z,78.82
2019-04-06T12:51:49.813Z,80.89
2019-04-06T12:52:49.825Z,80.51
2019-04-06T12:53:49.810Z,79.88
2019-04-06T12:54:49.855Z,80.89